createdAt,value
2022-09-07T00:00:50.685Z,99116.34
2022-09-07T00:03:18.382Z,99113.34
2022-09-07T00:05:47.101Z,99106.19
2022-09-07T00:08:15.008Z,99115.28
2022-09-07T00:10:41.779Z,99108.13
2022-09-07T00:13:08.973Z,99114.53
2022-09-07T00:15:40.065Z,99106.47
2022-09-07T00:18:06.844Z,99106.81
2022-09-07T00:20:33.619Z,99105.19
2022-09-07T00:23:01.476Z,99106.00
2022-09-07T00:25:31.818Z,99100.47
2022-09-07T00:27:59.351Z,99097.25
2022-09-07T00:30:26.179Z,99098.59
2022-09-07T00:32:52.971Z,99101.41
2022-09-07T00:35:19.677Z,99095.09
2022-09-07T00:37:46.339Z,99085.44
2022-09-07T00:40:13.178Z,99091.47
2022-09-07T00:42:39.944Z,99088.97
2022-09-07T00:45:19.833Z,99094.47
2022-09-07T00:48:10.108Z,99096.72
2022-09-07T00:50:44.428Z,99096.72
2022-09-07T00:53:25.061Z,99091.47
2022-09-07T00:55:53.810Z,99095.66
2022-09-07T00:58:22.631Z,99091.53
2022-09-07T01:00:50.542Z,99089.31
2022-09-07T01:03:23.108Z,99098.47
2022-09-07T01:06:02.569Z,99091.88
2022-09-07T01:08:30.470Z,99091.34
2022-09-07T01:10:59.336Z,99102.97
2022-09-07T01:13:26.056Z,99089.19
2022-09-07T01:16:24.291Z,99081.44
2022-09-07T01:19:20.343Z,99083.69
2022-09-07T01:21:55.607Z,99075.97
2022-09-07T01:24:59.080Z,99078.16
2022-09-07T01:27:40.558Z,99075.50
2022-09-07T01:30:13.086Z,99063.38
2022-09-07T01:33:08.928Z,99073.31
2022-09-07T01:36:03.968Z,99067.81
2022-09-07T01:38:48.274Z,99067.81
2022-09-07T01:41:26.564Z,99062.31
2022-09-07T01:44:06.061Z,99067.56
2022-09-07T01:46:51.806Z,99064.53
2022-09-07T01:49:23.324Z,99057.69
2022-09-07T01:51:58.683Z,99068.09
2022-09-07T01:54:55.734Z,99063.94
2022-09-07T01:57:31.456Z,99066.06
2022-09-07T02:00:10.918Z,99057.75
2022-09-07T02:02:55.742Z,99052.47
2022-09-07T02:05:58.980Z,99056.06
2022-09-07T02:08:33.847Z,99062.69
2022-09-07T02:11:25.511Z,99056.63
2022-09-07T02:13:59.868Z,99056.06
2022-09-07T02:16:30.146Z,99051.88
2022-09-07T02:19:04.918Z,99052.13
2022-09-07T02:21:37.054Z,99053.75
2022-09-07T02:24:09.883Z,99049.09
2022-09-07T02:26:40.046Z,99045.50
2022-09-07T02:29:07.516Z,99046.34
2022-09-07T02:31:34.529Z,99044.41
2022-09-07T02:34:04.160Z,99041.66
2022-09-07T02:36:37.031Z,99043.41
2022-09-07T02:39:04.252Z,99046.78
2022-09-07T02:41:40.282Z,99042.91
2022-09-07T02:44:12.055Z,99038.81
2022-09-07T02:46:44.756Z,99034.41
2022-09-07T02:49:38.060Z,99039.16
2022-09-07T02:52:35.267Z,99039.16
2022-09-07T02:55:46.382Z,99037.25
2022-09-07T03:02:04.750Z,99032.69
2022-09-07T03:04:47.831Z,99033.72
2022-09-07T03:07:22.978Z,99036.94
2022-09-07T03:09:53.366Z,99044.09
2022-09-07T03:12:20.383Z,99039.09
2022-09-07T03:14:47.546Z,99039.59
2022-09-07T03:17:14.441Z,99040.66
2022-09-07T03:19:41.244Z,99040.88
2022-09-07T03:22:07.921Z,99041.97
2022-09-07T03:24:34.857Z,99054.13
2022-09-07T03:27:01.814Z,99054.06
2022-09-07T03:29:28.515Z,99055.13
2022-09-07T03:31:55.242Z,99054.78
2022-09-07T03:34:21.934Z,99050.59
2022-09-07T03:36:48.919Z,99044.50
2022-09-07T03:39:15.628Z,99058.22
2022-09-07T03:41:43.555Z,99044.75
2022-09-07T03:44:10.795Z,99048.00
2022-09-07T03:46:37.476Z,99041.34
2022-09-07T03:49:04.238Z,99042.44
2022-09-07T03:51:31.918Z,99049.00
2022-09-07T03:54:00.560Z,99034.94
2022-09-07T03:56:27.339Z,99036.56
2022-09-07T03:58:55.420Z,99028.53
2022-09-07T04:01:24.904Z,99034.03
2022-09-07T04:03:52.990Z,99030.97
2022-09-07T04:06:20.198Z,99035.06
2022-09-07T04:08:46.952Z,99032.31
2022-09-07T04:11:17.104Z,99027.84
2022-09-07T04:13:45.706Z,99033.09
2022-09-07T04:16:18.132Z,99040.22
2022-09-07T04:18:45.579Z,99031.66
2022-09-07T04:21:13.251Z,99034.94
2022-09-07T04:23:41.606Z,99039.03
2022-09-07T04:26:14.846Z,99045.59
2022-09-07T04:28:42.830Z,99037.63
2022-09-07T04:31:12.554Z,99042.03
2022-09-07T04:33:39.290Z,99036.19
2022-09-07T04:36:06.177Z,99031.81
2022-09-07T04:38:34.510Z,99038.13
2022-09-07T04:41:09.954Z,99034.56
2022-09-07T04:43:39.004Z,99039.84
2022-09-07T04:46:09.010Z,99034.56
2022-09-07T04:48:36.266Z,99032.94
2022-09-07T04:51:09.245Z,99033.97
2022-09-07T04:53:40.075Z,99030.09
2022-09-07T04:56:06.987Z,99031.72
2022-09-07T04:58:33.738Z,99029.28
2022-09-07T05:01:02.385Z,99028.47
2022-09-07T05:03:30.388Z,99028.97
2022-09-07T05:05:57.073Z,99028.97
2022-09-07T05:08:24.394Z,99039.41
2022-09-07T05:10:53.548Z,99039.13
2022-09-07T05:13:20.271Z,99040.78
2022-09-07T05:28:07.153Z,99043.09
2022-09-07T05:38:23.047Z,99038.63
2022-09-07T05:47:07.829Z,99037.00
2022-09-07T05:50:12.028Z,99037.50
2022-09-07T06:05:16.386Z,99049.50
2022-09-07T06:07:48.898Z,99055.25
2022-09-07T06:17:51.632Z,99069.28
2022-09-07T06:24:52.990Z,99052.63
2022-09-07T06:27:33.180Z,99063.00
2022-09-07T06:29:59.831Z,99062.94
2022-09-07T06:35:09.233Z,99070.44
2022-09-07T06:37:37.023Z,99063.78
2022-09-07T06:40:05.629Z,99062.38
2022-09-07T06:42:32.481Z,99066.47
2022-09-07T06:44:59.455Z,99061.38
2022-09-07T06:47:26.185Z,99059.94
2022-09-07T06:57:15.800Z,99061.00
2022-09-07T06:59:42.466Z,99063.16
2022-09-07T07:02:33.795Z,99069.72
2022-09-07T07:05:00.738Z,99066.34
2022-09-07T07:08:43.819Z,99074.13
2022-09-07T07:11:15.998Z,99066.44
2022-09-07T07:13:45.262Z,99073.91
2022-09-07T07:16:17.073Z,99070.44
2022-09-07T07:25:49.795Z,99080.97
2022-09-07T07:31:09.781Z,99080.34
2022-09-07T07:33:38.987Z,99078.56
2022-09-07T07:36:17.955Z,99079.91
2022-09-07T07:39:05.182Z,99081.88
2022-09-07T07:44:19.789Z,99077.81
2022-09-07T07:46:51.427Z,99073.91
2022-09-07T07:49:18.405Z,99082.53
2022-09-07T07:54:36.882Z,99067.38
2022-09-07T07:57:05.443Z,99061.84
2022-09-07T07:59:32.138Z,99073.22
2022-09-07T08:02:04.391Z,99077.00
2022-09-07T08:04:35.286Z,99076.19
2022-09-07T08:07:08.634Z,99085.31
2022-09-07T08:09:41.358Z,99084.78
2022-09-07T08:12:09.123Z,99091.13
2022-09-07T08:14:40.740Z,99094.41
2022-09-07T08:17:09.437Z,99084.06
2022-09-07T08:19:36.263Z,99074.25
2022-09-07T08:22:03.966Z,99072.03
2022-09-07T08:24:33.925Z,99084.03
2022-09-07T08:27:01.430Z,99089.31
2022-09-07T08:29:31.277Z,99090.31
2022-09-07T08:32:00.514Z,99092.38
2022-09-07T08:34:27.411Z,99089.94
2022-09-07T08:36:55.012Z,99093.41
2022-09-07T08:39:21.990Z,99088.66
2022-09-07T08:42:11.365Z,99091.97
2022-09-07T08:45:03.053Z,99089.69
2022-09-07T08:47:38.342Z,99090.31
2022-09-07T08:50:33.906Z,99093.91
2022-09-07T08:53:14.382Z,99089.38
2022-09-07T08:56:00.847Z,99087.47
2022-09-07T08:58:50.411Z,99078.31
2022-09-07T09:01:31.820Z,99078.44
2022-09-07T09:07:15.236Z,99079.91
2022-09-07T09:10:06.319Z,99068.22
2022-09-07T09:13:05.367Z,99071.72
2022-09-07T09:15:52.484Z,99073.56
2022-09-07T09:18:22.276Z,99080.75
2022-09-07T09:20:52.111Z,99079.06
2022-09-07T09:23:21.758Z,99076.81
2022-09-07T09:25:56.841Z,99082.88
2022-09-07T09:28:25.559Z,99073.41
2022-09-07T09:30:54.937Z,99069.19
2022-09-07T09:33:24.171Z,99074.91
2022-09-07T09:35:53.589Z,99076.88
2022-09-07T09:38:35.424Z,99069.84
2022-09-07T09:41:16.299Z,99079.28
2022-09-07T09:43:57.264Z,99071.94
2022-09-07T09:46:33.785Z,99068.66
2022-09-07T09:49:01.902Z,99069.47
2022-09-07T09:54:33.896Z,99060.53
2022-09-07T09:57:01.074Z,99067.09
2022-09-07T10:05:28.668Z,99057.59
2022-09-07T10:07:56.550Z,99061.94
2022-09-07T10:10:23.661Z,99062.78
2022-09-07T10:12:54.186Z,99068.50
2022-09-07T10:15:40.997Z,99056.72
2022-09-07T10:18:18.959Z,99057.03
2022-09-07T10:20:45.784Z,99072.88
2022-09-07T10:23:23.959Z,99056.03
2022-09-07T10:25:51.361Z,99053.44
2022-09-07T10:28:21.745Z,99051.81
2022-09-07T10:31:19.215Z,99054.28
2022-09-07T10:34:31.457Z,99050.19
2022-09-07T10:37:07.117Z,99041.00
2022-09-07T10:39:43.010Z,99048.03
2022-09-07T10:42:09.828Z,99038.88
2022-09-07T10:44:53.483Z,99043.59
2022-09-07T10:47:30.753Z,99031.13
2022-09-07T10:50:22.441Z,99031.09
2022-09-07T10:53:39.601Z,99030.44
2022-09-07T10:56:10.508Z,99029.22
2022-09-07T11:01:48.428Z,99021.59
2022-09-07T11:04:21.398Z,99018.47
2022-09-07T11:06:52.606Z,99023.25
2022-09-07T11:09:57.476Z,99014.56
2022-09-07T11:12:32.126Z,99023.25
2022-09-07T11:15:10.699Z,99019.28
2022-09-07T11:17:52.832Z,99027.44
2022-09-07T11:20:28.631Z,99022.22
2022-09-07T11:23:04.293Z,99024.81
2022-09-07T11:25:41.388Z,99027.06
2022-09-07T11:28:32.898Z,99017.22
2022-09-07T11:31:04.283Z,99014.44
2022-09-07T11:36:51.926Z,99010.31
2022-09-07T11:39:55.401Z,99011.78
2022-09-07T11:42:44.452Z,99010.94
2022-09-07T11:45:19.546Z,99015.72
2022-09-07T11:48:05.906Z,99000.34
2022-09-07T11:50:36.977Z,99012.88
2022-09-07T11:53:22.267Z,99002.72
2022-09-07T11:55:55.726Z,98994.78
2022-09-07T11:58:49.103Z,98993.25
2022-09-07T12:01:29.889Z,98996.72
2022-09-07T12:04:05.418Z,98993.50
2022-09-07T12:06:56.879Z,98988.34
2022-09-07T12:09:39.561Z,98996.47
2022-09-07T12:12:29.257Z,98993.22
2022-09-07T12:15:10.962Z,98988.47
2022-09-07T12:18:02.136Z,98983.03
2022-09-07T12:20:46.782Z,98983.91
2022-09-07T12:23:16.461Z,98985.34
2022-09-07T12:25:48.565Z,98975.88
2022-09-07T12:28:21.327Z,98976.97
2022-09-07T12:30:54.051Z,98987.00
2022-09-07T12:33:27.239Z,98983.69
2022-09-07T12:35:57.170Z,98980.41
2022-09-07T12:38:34.116Z,98976.31
2022-09-07T12:41:03.739Z,98989.91
2022-09-07T12:43:50.717Z,98989.69
2022-09-07T12:46:34.720Z,99000.97
2022-09-07T12:49:31.307Z,98978.41
2022-09-07T12:52:31.664Z,98976.06
2022-09-07T12:55:29.274Z,98975.22
2022-09-07T12:58:15.031Z,98964.16
2022-09-07T13:01:06.627Z,98970.16
2022-09-07T13:03:52.560Z,98961.81
2022-09-07T13:07:09.169Z,98958.69
2022-09-07T13:09:40.125Z,98953.88
2022-09-07T13:12:54.892Z,98956.63
2022-09-07T13:15:41.476Z,98951.69
2022-09-07T13:18:29.634Z,98948.75
2022-09-07T13:21:08.285Z,98957.09
2022-09-07T13:23:38.257Z,98958.25
2022-09-07T13:26:10.734Z,98969.19
2022-09-07T13:28:40.337Z,98966.25
2022-09-07T13:31:16.726Z,98956.66
2022-09-07T13:33:51.821Z,98962.63
2022-09-07T13:36:37.798Z,98951.75
2022-09-07T13:39:12.742Z,98954.53
2022-09-07T13:41:48.967Z,98951.72
2022-09-07T13:44:30.189Z,98938.16
2022-09-07T13:47:19.246Z,98933.22
2022-09-07T13:49:45.944Z,98933.72
2022-09-07T13:52:18.684Z,98922.59
2022-09-07T13:54:58.631Z,98925.50
2022-09-07T13:57:47.048Z,98924.38
2022-09-07T14:00:15.752Z,98938.03
2022-09-07T14:02:43.184Z,98932.91
2022-09-07T14:05:17.493Z,98913.78
2022-09-07T14:07:48.628Z,98920.34
2022-09-07T14:10:26.255Z,98916.19
2022-09-07T14:13:02.095Z,98909.16
2022-09-07T14:15:39.493Z,98905.97
2022-09-07T14:18:12.607Z,98912.81
2022-09-07T14:20:45.900Z,98903.59
2022-09-07T14:23:19.473Z,98912.97
2022-09-07T14:28:37.016Z,98918.22
2022-09-07T14:31:05.913Z,98915.75
2022-09-07T14:33:33.183Z,98910.38
2022-09-07T14:36:06.134Z,98909.28
2022-09-07T14:41:32.912Z,98910.44
2022-09-07T14:44:00.974Z,98911.81
2022-09-07T14:46:30.862Z,98935.91
2022-09-07T14:49:00.218Z,98953.44
2022-09-07T14:51:36.440Z,98957.06
2022-09-07T14:54:07.709Z,98961.22
2022-09-07T14:56:40.348Z,98936.97
2022-09-07T14:59:32.925Z,98936.34
2022-09-07T15:02:18.109Z,98918.84
2022-09-07T15:04:46.611Z,98925.00
2022-09-07T15:07:39.915Z,98923.94
2022-09-07T15:10:41.316Z,98924.34
2022-09-07T15:13:30.027Z,98925.84
2022-09-07T15:16:01.314Z,98919.03
2022-09-07T15:18:46.371Z,98920.28
2022-09-07T15:21:14.350Z,98934.75
2022-09-07T15:23:41.138Z,98919.56
2022-09-07T15:27:01.943Z,98922.91
2022-09-07T15:29:13.437Z,98913.63
2022-09-07T15:31:42.759Z,98902.94
2022-09-07T15:34:16.822Z,98905.47
2022-09-07T15:36:48.775Z,98891.84
2022-09-07T15:39:21.489Z,98893.25
2022-09-07T15:41:48.589Z,98880.38
2022-09-07T15:44:15.978Z,98887.59
2022-09-07T15:47:43.177Z,98890.06
2022-09-07T15:49:30.551Z,98895.56
2022-09-07T15:52:05.074Z,98896.09
2022-09-07T15:54:35.082Z,98899.50
2022-09-07T15:59:50.923Z,98906.03
2022-09-07T16:05:06.409Z,98903.09
2022-09-07T16:10:21.030Z,98908.56
2022-09-07T16:13:10.406Z,98910.75
2022-09-07T16:15:37.258Z,98895.97
2022-09-07T16:18:04.629Z,98897.34
2022-09-07T16:20:32.501Z,98892.81
2022-09-07T16:23:15.997Z,98888.88
2022-09-07T16:25:55.788Z,98889.88
2022-09-07T16:28:22.691Z,98889.75
2022-09-07T16:30:49.599Z,98895.00
2022-09-07T16:33:16.437Z,98889.19
2022-09-07T16:35:43.204Z,98886.97
2022-09-07T16:40:56.559Z,98887.06
2022-09-07T16:43:23.278Z,98890.00
2022-09-07T16:46:03.261Z,98882.16
2022-09-07T16:48:31.947Z,98888.88
2022-09-07T16:51:02.320Z,98886.75
2022-09-07T16:53:31.353Z,98882.69
2022-09-07T16:56:07.424Z,98887.75
2022-09-07T16:58:37.883Z,98884.00
2022-09-07T17:01:08.127Z,98871.25
2022-09-07T17:03:36.770Z,98884.63
2022-09-07T17:06:05.390Z,98883.16
2022-09-07T17:08:34.377Z,98880.22
2022-09-07T17:11:03.550Z,98878.59
2022-09-07T17:13:35.474Z,98870.91
2022-09-07T17:16:22.693Z,98869.09
2022-09-07T17:27:27.342Z,98877.53
2022-09-07T17:29:54.116Z,98866.06
2022-09-07T17:32:25.118Z,98863.47
2022-09-07T17:34:52.210Z,98873.38
2022-09-07T17:37:18.988Z,98876.81
2022-09-07T17:39:45.693Z,98868.75
2022-09-07T17:42:13.330Z,98874.59
2022-09-07T17:44:43.800Z,98884.19
2022-09-07T17:47:10.558Z,98875.03
2022-09-07T17:49:43.342Z,98880.72
2022-09-07T17:55:45.230Z,98884.13
2022-09-07T17:58:12.579Z,98874.22
2022-09-07T18:00:40.166Z,98882.09
2022-09-07T18:03:07.140Z,98883.38
2022-09-07T18:05:33.897Z,98886.28
2022-09-07T18:08:08.309Z,98884.25
2022-09-07T18:13:56.596Z,98894.56
2022-09-07T18:16:27.823Z,98890.78
2022-09-07T18:18:56.209Z,98896.31
2022-09-07T18:21:57.660Z,98885.75
2022-09-07T18:24:29.494Z,98892.34
2022-09-07T18:26:56.166Z,98899.34
2022-09-07T18:29:34.698Z,98897.31
2022-09-07T18:42:34.417Z,98905.16
2022-09-07T18:55:22.225Z,98907.50
2022-09-07T19:02:31.708Z,98927.56
2022-09-07T19:05:55.417Z,98937.28
2022-09-07T19:08:22.813Z,98933.81
2022-09-07T19:11:26.305Z,98931.16
2022-09-07T19:14:27.706Z,98935.28
2022-09-07T19:21:05.203Z,98934.25
2022-09-07T19:23:32.419Z,98931.28
2022-09-07T19:26:05.579Z,98936.28
2022-09-07T19:32:07.984Z,98937.28
2022-09-07T19:53:55.011Z,98947.84
2022-09-07T19:56:24.539Z,98947.25
2022-09-07T19:58:51.264Z,98936.91
2022-09-07T20:01:21.115Z,98935.66
2022-09-07T20:04:00.844Z,98930.34
2022-09-07T20:06:28.695Z,98930.84
2022-09-07T20:12:44.325Z,98934.75
2022-09-07T20:15:11.279Z,98928.06
2022-09-07T20:17:39.389Z,98933.81
2022-09-07T20:23:09.381Z,98924.38
2022-09-07T20:25:36.409Z,98916.19
2022-09-07T20:28:06.670Z,98910.88
2022-09-07T20:30:35.136Z,98907.09
2022-09-07T20:36:15.505Z,98907.63
2022-09-07T20:48:22.993Z,98909.97
2022-09-07T20:50:58.636Z,98907.50
2022-09-07T20:53:29.701Z,98909.47
2022-09-07T20:56:08.252Z,98911.09
2022-09-07T20:58:36.185Z,98908.84
2022-09-07T21:01:04.147Z,98902.47
2022-09-07T21:03:31.071Z,98900.03
2022-09-07T21:06:05.932Z,98902.28
2022-09-07T21:09:16.504Z,98904.13
2022-09-07T21:17:44.082Z,98908.53
2022-09-07T21:22:56.423Z,98902.69
2022-09-07T21:25:23.316Z,98893.91
2022-09-07T21:27:50.176Z,98891.94
2022-09-07T21:30:17.574Z,98896.66
2022-09-07T21:32:47.179Z,98891.22
2022-09-07T21:35:16.745Z,98889.78
2022-09-07T21:46:31.475Z,98911.91
2022-09-07T21:49:15.680Z,98913.97
2022-09-07T21:51:42.492Z,98909.88
2022-09-07T21:54:14.069Z,98910.88
2022-09-07T21:56:47.750Z,98900.84
2022-09-07T21:59:15.056Z,98895.34
2022-09-07T22:01:44.472Z,98906.38
2022-09-07T22:04:13.872Z,98909.97
2022-09-07T22:11:16.413Z,98903.84
2022-09-07T22:13:46.350Z,98903.03
2022-09-07T22:16:16.900Z,98907.63
2022-09-07T22:18:54.917Z,98912.34
2022-09-07T22:21:25.053Z,98911.22
2022-09-07T22:24:27.317Z,98896.97
2022-09-07T22:26:56.748Z,98908.84
2022-09-07T22:29:30.096Z,98898.09
2022-09-07T22:31:58.460Z,98890.84
2022-09-07T22:34:25.749Z,98904.13
2022-09-07T22:36:59.767Z,98898.19
2022-09-07T22:51:54.275Z,98899.34
2022-09-07T23:00:58.098Z,98901.16
2022-09-07T23:03:29.977Z,98898.28
2022-09-07T23:13:16.851Z,98887.78
2022-09-07T23:15:44.235Z,98884.06
2022-09-07T23:18:22.527Z,98880.69
2022-09-07T23:22:11.595Z,98883.03
2022-09-07T23:28:39.530Z,98873.56
2022-09-07T23:35:45.909Z,98869.63
2022-09-07T23:44:28.424Z,98864.25
2022-09-07T23:46:57.890Z,98870.13
2022-09-07T23:49:25.657Z,98863.00
2022-09-07T23:51:56.460Z,98862.25
2022-09-07T23:54:23.418Z,98867.25
2022-09-07T23:56:54.048Z,98861.28
2022-09-07T23:59:21.744Z,98861.03
